Terminal Aerodrome Forecast
Issued by NWS Boston, MA

Home | Current Version | Previous Version | Text Only | Print | Product List | Glossary On
Versions: 1 2 3 4 5 6 7 8 9 10 11 12 13 14 15 16 17 18 19 20 21 22 23
000
FTUS41 KBOX 032322
TAFBOS
TAF
KBOS 032322Z 0400/0506 09005KT P6SM VCSH SCT025 OVC080
     FM040600 07004KT P6SM OVC025
     FM041500 07011KT P6SM OVC020
     FM041700 07011KT P6SM VCSH OVC020
     FM042200 07010KT P6SM -RA OVC010=

USA.gov is the U.S. government's official web portal to all federal, state and local government web resources and services.